sensor_id;sensor_type;location;lat;lon;timestamp;temperature;humidity
35541;DHT22;21650;48.840;9.162;2024-02-26T00:00:04;6.40;99.90
35541;DHT22;21650;48.840;9.162;2024-02-26T00:02:37;6.40;99.90
35541;DHT22;21650;48.840;9.162;2024-02-26T00:05:07;6.30;99.90
35541;DHT22;21650;48.840;9.162;2024-02-26T00:07:33;6.30;99.90
35541;DHT22;21650;48.840;9.162;2024-02-26T00:09:59;6.40;99.90
35541;DHT22;21650;48.840;9.162;2024-02-26T00:12:25;6.40;99.90
35541;DHT22;21650;48.840;9.162;2024-02-26T00:14:50;6.40;99.90
35541;DHT22;21650;48.840;9.162;2024-02-26T00:17:18;6.40;99.90
35541;DHT22;21650;48.840;9.162;2024-02-26T00:19:43;6.40;99.90
35541;DHT22;21650;48.840;9.162;2024-02-26T00:22:09;6.40;99.90
35541;DHT22;21650;48.840;9.162;2024-02-26T00:24:34;6.40;99.90
35541;DHT22;21650;48.840;9.162;2024-02-26T00:27:00;6.40;99.90
35541;DHT22;21650;48.840;9.162;2024-02-26T00:29:26;6.50;99.90
35541;DHT22;21650;48.840;9.162;2024-02-26T00:31:51;6.50;99.90
35541;DHT22;21650;48.840;9.162;2024-02-26T00:34:17;6.50;99.90
35541;DHT22;21650;48.840;9.162;2024-02-26T00:36:42;6.50;99.90
35541;DHT22;21650;48.840;9.162;2024-02-26T00:39:08;6.50;99.90
35541;DHT22;21650;48.840;9.162;2024-02-26T00:41:39;6.50;99.90
35541;DHT22;21650;48.840;9.162;2024-02-26T00:44:05;6.60;99.90
35541;DHT22;21650;48.840;9.162;2024-02-26T00:46:31;6.60;99.90
35541;DHT22;21650;48.840;9.162;2024-02-26T00:48:56;6.70;99.90
35541;DHT22;21650;48.840;9.162;2024-02-26T00:51:22;6.60;99.90
35541;DHT22;21650;48.840;9.162;2024-02-26T00:53:47;6.60;99.90
35541;DHT22;21650;48.840;9.162;2024-02-26T00:56:13;6.60;99.90
35541;DHT22;21650;48.840;9.162;2024-02-26T00:58:39;6.70;99.90
35541;DHT22;21650;48.840;9.162;2024-02-26T01:01:04;6.70;99.90
35541;DHT22;21650;48.840;9.162;2024-02-26T01:03:30;6.70;99.90
35541;DHT22;21650;48.840;9.162;2024-02-26T01:05:55;6.60;99.90
35541;DHT22;21650;48.840;9.162;2024-02-26T01:08:21;6.70;99.90
35541;DHT22;21650;48.840;9.162;2024-02-26T01:10:47;6.70;99.90
35541;DHT22;21650;48.840;9.162;2024-02-26T01:13:12;6.80;99.90
35541;DHT22;21650;48.840;9.162;2024-02-26T01:15:38;6.70;99.90
35541;DHT22;21650;48.840;9.162;2024-02-26T01:18:04;6.70;99.90
35541;DHT22;21650;48.840;9.162;2024-02-26T01:20:29;6.70;99.90
35541;DHT22;21650;48.840;9.162;2024-02-26T01:22:55;6.70;99.90
35541;DHT22;21650;48.840;9.162;2024-02-26T01:25:20;6.70;99.90
35541;DHT22;21650;48.840;9.162;2024-02-26T01:27:46;6.70;99.90
35541;DHT22;21650;48.840;9.162;2024-02-26T01:30:12;6.70;99.90
35541;DHT22;21650;48.840;9.162;2024-02-26T01:32:37;6.80;99.90
35541;DHT22;21650;48.840;9.162;2024-02-26T01:35:03;6.90;99.90
35541;DHT22;21650;48.840;9.162;2024-02-26T01:37:29;7.00;99.90
35541;DHT22;21650;48.840;9.162;2024-02-26T01:39:57;7.00;99.90
35541;DHT22;21650;48.840;9.162;2024-02-26T01:42:23;6.90;99.90
35541;DHT22;21650;48.840;9.162;2024-02-26T01:44:49;6.90;99.90
35541;DHT22;21650;48.840;9.162;2024-02-26T01:47:14;6.90;99.90
35541;DHT22;21650;48.840;9.162;2024-02-26T01:49:40;6.80;99.90
35541;DHT22;21650;48.840;9.162;2024-02-26T01:52:08;6.80;99.90
35541;DHT22;21650;48.840;9.162;2024-02-26T01:54:37;6.70;99.90
35541;DHT22;21650;48.840;9.162;2024-02-26T01:57:04;6.70;99.90
35541;DHT22;21650;48.840;9.162;2024-02-26T01:59:30;6.70;99.90
35541;DHT22;21650;48.840;9.162;2024-02-26T02:01:58;6.60;99.90
35541;DHT22;21650;48.840;9.162;2024-02-26T02:04:24;6.60;99.90
35541;DHT22;21650;48.840;9.162;2024-02-26T02:06:50;6.60;99.90
35541;DHT22;21650;48.840;9.162;2024-02-26T02:09:18;6.60;99.90
35541;DHT22;21650;48.840;9.162;2024-02-26T02:11:44;6.60;99.90
35541;DHT22;21650;48.840;9.162;2024-02-26T02:14:10;6.60;99.90
35541;DHT22;21650;48.840;9.162;2024-02-26T02:16:35;6.60;99.90
35541;DHT22;21650;48.840;9.162;2024-02-26T02:19:01;6.60;99.90
35541;DHT22;21650;48.840;9.162;2024-02-26T02:21:27;6.50;99.90
35541;DHT22;21650;48.840;9.162;2024-02-26T02:23:52;6.50;99.90
35541;DHT22;21650;48.840;9.162;2024-02-26T02:26:18;6.50;99.90
35541;DHT22;21650;48.840;9.162;2024-02-26T02:28:45;6.50;99.90
35541;DHT22;21650;48.840;9.162;2024-02-26T02:31:11;6.50;99.90
35541;DHT22;21650;48.840;9.162;2024-02-26T02:33:37;6.50;99.90
35541;DHT22;21650;48.840;9.162;2024-02-26T02:36:03;6.50;99.90
35541;DHT22;21650;48.840;9.162;2024-02-26T02:38:29;6.50;99.90
35541;DHT22;21650;48.840;9.162;2024-02-26T02:40:56;6.50;99.90
35541;DHT22;21650;48.840;9.162;2024-02-26T02:43:21;6.50;99.90
35541;DHT22;21650;48.840;9.162;2024-02-26T02:49:09;6.70;99.90
35541;DHT22;21650;48.840;9.162;2024-02-26T02:51:38;6.80;99.90
35541;DHT22;21650;48.840;9.162;2024-02-26T02:54:03;6.80;99.90
35541;DHT22;21650;48.840;9.162;2024-02-26T02:56:29;6.70;99.90
35541;DHT22;21650;48.840;9.162;2024-02-26T02:58:55;6.80;99.90
35541;DHT22;21650;48.840;9.162;2024-02-26T03:01:20;6.70;99.90
35541;DHT22;21650;48.840;9.162;2024-02-26T03:03:46;6.70;99.90
35541;DHT22;21650;48.840;9.162;2024-02-26T03:06:11;6.70;99.90
35541;DHT22;21650;48.840;9.162;2024-02-26T03:08:37;6.70;99.90
35541;DHT22;21650;48.840;9.162;2024-02-26T03:11:05;6.70;99.90
35541;DHT22;21650;48.840;9.162;2024-02-26T03:13:30;6.60;99.90
35541;DHT22;21650;48.840;9.162;2024-02-26T03:15:56;6.70;99.90
35541;DHT22;21650;48.840;9.162;2024-02-26T03:18:22;6.70;99.90
35541;DHT22;21650;48.840;9.162;2024-02-26T03:20:48;6.70;99.90
35541;DHT22;21650;48.840;9.162;2024-02-26T03:23:14;6.70;99.90
35541;DHT22;21650;48.840;9.162;2024-02-26T03:25:43;6.70;99.90
35541;DHT22;21650;48.840;9.162;2024-02-26T03:28:09;6.70;99.90
35541;DHT22;21650;48.840;9.162;2024-02-26T03:30:34;6.70;99.90
35541;DHT22;21650;48.840;9.162;2024-02-26T03:33:00;6.60;99.90
35541;DHT22;21650;48.840;9.162;2024-02-26T03:35:26;6.60;99.90
35541;DHT22;21650;48.840;9.162;2024-02-26T03:37:51;6.60;99.90
35541;DHT22;21650;48.840;9.162;2024-02-26T03:40:17;6.50;99.90
35541;DHT22;21650;48.840;9.162;2024-02-26T03:42:45;6.50;99.90
35541;DHT22;21650;48.840;9.162;2024-02-26T03:45:10;6.60;99.90
35541;DHT22;21650;48.840;9.162;2024-02-26T03:47:37;6.50;99.90
35541;DHT22;21650;48.840;9.162;2024-02-26T03:50:05;6.50;99.90
35541;DHT22;21650;48.840;9.162;2024-02-26T03:52:32;6.50;99.90
35541;DHT22;21650;48.840;9.162;2024-02-26T03:54:58;6.50;99.90
35541;DHT22;21650;48.840;9.162;2024-02-26T03:57:23;6.50;99.90
35541;DHT22;21650;48.840;9.162;2024-02-26T03:59:49;6.50;99.90
35541;DHT22;21650;48.840;9.162;2024-02-26T04:02:14;6.60;99.90
35541;DHT22;21650;48.840;9.162;2024-02-26T04:04:41;6.60;99.90
35541;DHT22;21650;48.840;9.162;2024-02-26T04:07:06;6.60;99.90
35541;DHT22;21650;48.840;9.162;2024-02-26T04:09:33;6.50;99.90
35541;DHT22;21650;48.840;9.162;2024-02-26T04:11:58;6.50;99.90
35541;DHT22;21650;48.840;9.162;2024-02-26T04:14:24;6.50;99.90
35541;DHT22;21650;48.840;9.162;2024-02-26T04:16:50;6.50;99.90
35541;DHT22;21650;48.840;9.162;2024-02-26T04:19:17;6.50;99.90
35541;DHT22;21650;48.840;9.162;2024-02-26T04:21:43;6.60;99.90
35541;DHT22;21650;48.840;9.162;2024-02-26T04:24:09;6.50;99.90
35541;DHT22;21650;48.840;9.162;2024-02-26T04:26:34;6.70;99.90
35541;DHT22;21650;48.840;9.162;2024-02-26T04:29:00;6.70;99.90
35541;DHT22;21650;48.840;9.162;2024-02-26T04:31:26;6.70;99.90
35541;DHT22;21650;48.840;9.162;2024-02-26T04:33:52;6.70;99.90
35541;DHT22;21650;48.840;9.162;2024-02-26T04:36:18;6.80;99.90
35541;DHT22;21650;48.840;9.162;2024-02-26T04:38:44;6.80;99.90
35541;DHT22;21650;48.840;9.162;2024-02-26T04:41:09;6.70;99.90
35541;DHT22;21650;48.840;9.162;2024-02-26T04:43:35;6.70;99.90
35541;DHT22;21650;48.840;9.162;2024-02-26T04:46:09;6.60;99.90
35541;DHT22;21650;48.840;9.162;2024-02-26T04:48:38;6.60;99.90
35541;DHT22;21650;48.840;9.162;2024-02-26T04:51:04;6.60;99.90
35541;DHT22;21650;48.840;9.162;2024-02-26T04:53:30;6.60;99.90
35541;DHT22;21650;48.840;9.162;2024-02-26T04:55:57;6.50;99.90
35541;DHT22;21650;48.840;9.162;2024-02-26T04:58:23;6.60;99.90
35541;DHT22;21650;48.840;9.162;2024-02-26T05:00:48;6.60;99.90
35541;DHT22;21650;48.840;9.162;2024-02-26T05:03:14;6.70;99.90
35541;DHT22;21650;48.840;9.162;2024-02-26T05:05:42;6.60;99.90
35541;DHT22;21650;48.840;9.162;2024-02-26T05:08:08;6.60;99.90
35541;DHT22;21650;48.840;9.162;2024-02-26T05:10:34;6.50;99.90
35541;DHT22;21650;48.840;9.162;2024-02-26T05:13:04;6.50;99.90
35541;DHT22;21650;48.840;9.162;2024-02-26T05:15:30;6.50;99.90
35541;DHT22;21650;48.840;9.162;2024-02-26T05:17:55;6.50;99.90
35541;DHT22;21650;48.840;9.162;2024-02-26T05:20:21;6.50;99.90
35541;DHT22;21650;48.840;9.162;2024-02-26T05:22:47;6.40;99.90
35541;DHT22;21650;48.840;9.162;2024-02-26T05:25:15;6.40;99.90
35541;DHT22;21650;48.840;9.162;2024-02-26T05:27:41;6.40;99.90
35541;DHT22;21650;48.840;9.162;2024-02-26T05:30:07;6.40;99.90
35541;DHT22;21650;48.840;9.162;2024-02-26T05:32:33;6.40;99.90
35541;DHT22;21650;48.840;9.162;2024-02-26T05:34:59;6.40;99.90
35541;DHT22;21650;48.840;9.162;2024-02-26T05:37:24;6.40;99.90
35541;DHT22;21650;48.840;9.162;2024-02-26T05:39:50;6.40;99.90
35541;DHT22;21650;48.840;9.162;2024-02-26T05:42:15;6.40;99.90
35541;DHT22;21650;48.840;9.162;2024-02-26T05:44:41;6.40;99.90
35541;DHT22;21650;48.840;9.162;2024-02-26T05:47:07;6.40;99.90
35541;DHT22;21650;48.840;9.162;2024-02-26T05:49:32;6.40;99.90
35541;DHT22;21650;48.840;9.162;2024-02-26T05:51:59;6.40;99.90
35541;DHT22;21650;48.840;9.162;2024-02-26T05:54:24;6.40;99.90
35541;DHT22;21650;48.840;9.162;2024-02-26T05:56:50;6.40;99.90
35541;DHT22;21650;48.840;9.162;2024-02-26T05:59:15;6.40;99.90
35541;DHT22;21650;48.840;9.162;2024-02-26T06:01:41;6.40;99.90
35541;DHT22;21650;48.840;9.162;2024-02-26T06:04:07;6.50;99.90
35541;DHT22;21650;48.840;9.162;2024-02-26T06:06:32;6.40;99.90
35541;DHT22;21650;48.840;9.162;2024-02-26T06:08:58;6.50;99.90
35541;DHT22;21650;48.840;9.162;2024-02-26T06:11:23;6.50;99.90
35541;DHT22;21650;48.840;9.162;2024-02-26T06:13:49;6.50;99.90
35541;DHT22;21650;48.840;9.162;2024-02-26T06:16:15;6.50;99.90
35541;DHT22;21650;48.840;9.162;2024-02-26T06:18:41;6.40;99.90
35541;DHT22;21650;48.840;9.162;2024-02-26T06:21:09;6.40;99.90
35541;DHT22;21650;48.840;9.162;2024-02-26T06:23:36;6.30;99.90
35541;DHT22;21650;48.840;9.162;2024-02-26T06:26:01;6.30;99.90
35541;DHT22;21650;48.840;9.162;2024-02-26T06:28:27;6.30;99.90
35541;DHT22;21650;48.840;9.162;2024-02-26T06:30:55;6.30;99.90
35541;DHT22;21650;48.840;9.162;2024-02-26T06:33:21;6.30;99.90
35541;DHT22;21650;48.840;9.162;2024-02-26T06:35:47;6.30;99.90
35541;DHT22;21650;48.840;9.162;2024-02-26T06:38:12;6.30;99.90
35541;DHT22;21650;48.840;9.162;2024-02-26T06:40:39;6.30;99.90
35541;DHT22;21650;48.840;9.162;2024-02-26T06:43:05;6.30;99.90
35541;DHT22;21650;48.840;9.162;2024-02-26T06:45:31;6.20;99.90
35541;DHT22;21650;48.840;9.162;2024-02-26T06:47:57;6.30;99.90
35541;DHT22;21650;48.840;9.162;2024-02-26T06:50:22;6.30;99.90
35541;DHT22;21650;48.840;9.162;2024-02-26T06:52:48;6.30;99.90
35541;DHT22;21650;48.840;9.162;2024-02-26T06:55:14;6.40;99.90
35541;DHT22;21650;48.840;9.162;2024-02-26T06:57:39;6.40;99.90
35541;DHT22;21650;48.840;9.162;2024-02-26T07:00:05;6.40;99.90
35541;DHT22;21650;48.840;9.162;2024-02-26T07:02:31;6.40;99.90
35541;DHT22;21650;48.840;9.162;2024-02-26T07:04:57;6.40;99.90
35541;DHT22;21650;48.840;9.162;2024-02-26T07:07:24;6.50;99.90
35541;DHT22;21650;48.840;9.162;2024-02-26T07:09:50;6.50;99.90
35541;DHT22;21650;48.840;9.162;2024-02-26T07:12:16;6.50;99.90
35541;DHT22;21650;48.840;9.162;2024-02-26T07:14:41;6.60;99.90
35541;DHT22;21650;48.840;9.162;2024-02-26T07:17:08;6.70;99.90
35541;DHT22;21650;48.840;9.162;2024-02-26T07:19:34;6.70;99.90
35541;DHT22;21650;48.840;9.162;2024-02-26T07:21:59;6.80;99.90
35541;DHT22;21650;48.840;9.162;2024-02-26T07:24:27;6.80;99.90
35541;DHT22;21650;48.840;9.162;2024-02-26T07:26:53;6.80;99.90
35541;DHT22;21650;48.840;9.162;2024-02-26T07:29:20;6.90;99.90
35541;DHT22;21650;48.840;9.162;2024-02-26T07:31:46;7.00;99.90
35541;DHT22;21650;48.840;9.162;2024-02-26T07:34:12;7.00;99.90
35541;DHT22;21650;48.840;9.162;2024-02-26T07:36:38;7.00;99.90
35541;DHT22;21650;48.840;9.162;2024-02-26T07:39:03;7.00;99.90
35541;DHT22;21650;48.840;9.162;2024-02-26T07:41:29;7.00;99.90
35541;DHT22;21650;48.840;9.162;2024-02-26T07:43:54;7.00;99.90
35541;DHT22;21650;48.840;9.162;2024-02-26T07:46:20;7.10;99.90
35541;DHT22;21650;48.840;9.162;2024-02-26T07:48:46;7.20;99.90
35541;DHT22;21650;48.840;9.162;2024-02-26T07:51:14;7.20;99.90
35541;DHT22;21650;48.840;9.162;2024-02-26T07:53:40;7.10;99.90
35541;DHT22;21650;48.840;9.162;2024-02-26T07:56:06;7.20;99.90
35541;DHT22;21650;48.840;9.162;2024-02-26T07:58:35;7.10;99.90
35541;DHT22;21650;48.840;9.162;2024-02-26T08:01:01;7.20;99.90
35541;DHT22;21650;48.840;9.162;2024-02-26T08:03:26;7.20;99.90
35541;DHT22;21650;48.840;9.162;2024-02-26T08:05:52;7.20;99.90
35541;DHT22;21650;48.840;9.162;2024-02-26T08:08:18;7.20;99.90
35541;DHT22;21650;48.840;9.162;2024-02-26T08:10:43;7.20;99.90
35541;DHT22;21650;48.840;9.162;2024-02-26T08:13:09;7.30;99.90
35541;DHT22;21650;48.840;9.162;2024-02-26T08:15:35;7.30;99.90
35541;DHT22;21650;48.840;9.162;2024-02-26T08:18:03;7.30;99.90
35541;DHT22;21650;48.840;9.162;2024-02-26T08:20:29;7.40;99.90
35541;DHT22;21650;48.840;9.162;2024-02-26T08:22:55;7.40;99.90
35541;DHT22;21650;48.840;9.162;2024-02-26T08:25:22;7.40;99.90
35541;DHT22;21650;48.840;9.162;2024-02-26T08:27:47;7.50;99.90
35541;DHT22;21650;48.840;9.162;2024-02-26T08:30:14;7.50;99.90
35541;DHT22;21650;48.840;9.162;2024-02-26T08:32:42;7.60;99.90
35541;DHT22;21650;48.840;9.162;2024-02-26T08:35:08;7.60;99.90
35541;DHT22;21650;48.840;9.162;2024-02-26T08:37:34;7.60;99.90
35541;DHT22;21650;48.840;9.162;2024-02-26T08:39:59;7.70;99.90
35541;DHT22;21650;48.840;9.162;2024-02-26T08:42:25;7.70;99.90
35541;DHT22;21650;48.840;9.162;2024-02-26T08:44:50;7.80;99.90
35541;DHT22;21650;48.840;9.162;2024-02-26T08:47:16;7.80;99.90
35541;DHT22;21650;48.840;9.162;2024-02-26T08:49:45;7.80;99.90
35541;DHT22;21650;48.840;9.162;2024-02-26T08:52:11;7.90;99.90
35541;DHT22;21650;48.840;9.162;2024-02-26T08:54:37;7.90;99.90
35541;DHT22;21650;48.840;9.162;2024-02-26T08:57:03;8.00;99.90
35541;DHT22;21650;48.840;9.162;2024-02-26T08:59:28;8.10;99.90
35541;DHT22;21650;48.840;9.162;2024-02-26T09:01:54;8.20;99.90
35541;DHT22;21650;48.840;9.162;2024-02-26T09:04:20;8.20;99.90
35541;DHT22;21650;48.840;9.162;2024-02-26T09:06:46;8.20;99.90
35541;DHT22;21650;48.840;9.162;2024-02-26T09:09:11;8.30;99.90
35541;DHT22;21650;48.840;9.162;2024-02-26T09:11:37;8.20;99.90
35541;DHT22;21650;48.840;9.162;2024-02-26T09:14:03;8.20;99.90
35541;DHT22;21650;48.840;9.162;2024-02-26T09:16:31;8.30;99.90
35541;DHT22;21650;48.840;9.162;2024-02-26T09:18:57;8.30;99.90
35541;DHT22;21650;48.840;9.162;2024-02-26T09:21:22;8.30;99.90
35541;DHT22;21650;48.840;9.162;2024-02-26T09:23:50;8.30;99.90
35541;DHT22;21650;48.840;9.162;2024-02-26T09:26:16;8.40;99.90
35541;DHT22;21650;48.840;9.162;2024-02-26T09:28:42;8.30;99.90
35541;DHT22;21650;48.840;9.162;2024-02-26T09:31:08;8.30;99.90
35541;DHT22;21650;48.840;9.162;2024-02-26T09:33:34;8.30;99.90
35541;DHT22;21650;48.840;9.162;2024-02-26T09:35:59;8.30;99.90
35541;DHT22;21650;48.840;9.162;2024-02-26T09:38:28;8.30;99.90
35541;DHT22;21650;48.840;9.162;2024-02-26T09:40:58;8.20;99.90
35541;DHT22;21650;48.840;9.162;2024-02-26T09:43:25;8.20;99.90
35541;DHT22;21650;48.840;9.162;2024-02-26T09:45:54;8.30;99.90
35541;DHT22;21650;48.840;9.162;2024-02-26T09:48:20;8.40;99.90
35541;DHT22;21650;48.840;9.162;2024-02-26T09:50:46;8.40;99.90
35541;DHT22;21650;48.840;9.162;2024-02-26T09:53:12;8.40;99.90
35541;DHT22;21650;48.840;9.162;2024-02-26T09:55:40;8.50;99.90
35541;DHT22;21650;48.840;9.162;2024-02-26T09:58:06;8.50;99.90
35541;DHT22;21650;48.840;9.162;2024-02-26T10:00:37;8.60;99.90
35541;DHT22;21650;48.840;9.162;2024-02-26T10:03:04;8.80;99.90
35541;DHT22;21650;48.840;9.162;2024-02-26T10:05:34;9.00;99.90
35541;DHT22;21650;48.840;9.162;2024-02-26T10:08:01;9.10;99.90
35541;DHT22;21650;48.840;9.162;2024-02-26T10:10:29;9.10;99.90
35541;DHT22;21650;48.840;9.162;2024-02-26T10:12:54;9.10;99.90
35541;DHT22;21650;48.840;9.162;2024-02-26T10:15:20;9.20;99.90
35541;DHT22;21650;48.840;9.162;2024-02-26T10:17:46;9.40;99.90
35541;DHT22;21650;48.840;9.162;2024-02-26T10:20:19;9.40;99.90
35541;DHT22;21650;48.840;9.162;2024-02-26T10:22:47;9.50;99.90
35541;DHT22;21650;48.840;9.162;2024-02-26T10:25:13;9.60;99.90
35541;DHT22;21650;48.840;9.162;2024-02-26T10:27:40;9.80;99.90
35541;DHT22;21650;48.840;9.162;2024-02-26T10:30:22;9.90;99.90
35541;DHT22;21650;48.840;9.162;2024-02-26T10:32:51;9.90;99.90
35541;DHT22;21650;48.840;9.162;2024-02-26T10:35:18;10.20;99.90
35541;DHT22;21650;48.840;9.162;2024-02-26T10:37:46;10.30;99.90
35541;DHT22;21650;48.840;9.162;2024-02-26T10:40:13;10.20;99.90
35541;DHT22;21650;48.840;9.162;2024-02-26T10:42:40;10.40;99.90
35541;DHT22;21650;48.840;9.162;2024-02-26T10:45:07;10.40;99.90
35541;DHT22;21650;48.840;9.162;2024-02-26T10:47:35;10.50;99.90
35541;DHT22;21650;48.840;9.162;2024-02-26T10:50:05;10.50;99.90
35541;DHT22;21650;48.840;9.162;2024-02-26T10:52:32;10.50;99.90
35541;DHT22;21650;48.840;9.162;2024-02-26T10:55:02;10.50;99.90
35541;DHT22;21650;48.840;9.162;2024-02-26T10:57:33;10.60;99.90
35541;DHT22;21650;48.840;9.162;2024-02-26T11:00:00;10.70;99.90
35541;DHT22;21650;48.840;9.162;2024-02-26T11:02:33;10.70;99.90
35541;DHT22;21650;48.840;9.162;2024-02-26T11:05:05;10.70;99.90
35541;DHT22;21650;48.840;9.162;2024-02-26T11:07:31;10.80;99.90
35541;DHT22;21650;48.840;9.162;2024-02-26T11:09:59;10.90;99.90
35541;DHT22;21650;48.840;9.162;2024-02-26T11:12:26;11.00;99.90
35541;DHT22;21650;48.840;9.162;2024-02-26T11:14:53;11.00;99.90
35541;DHT22;21650;48.840;9.162;2024-02-26T11:17:22;11.10;99.90
35541;DHT22;21650;48.840;9.162;2024-02-26T11:19:50;11.20;99.90
35541;DHT22;21650;48.840;9.162;2024-02-26T11:22:16;11.30;99.90
35541;DHT22;21650;48.840;9.162;2024-02-26T11:24:42;11.30;99.90
35541;DHT22;21650;48.840;9.162;2024-02-26T11:27:10;11.30;99.90
35541;DHT22;21650;48.840;9.162;2024-02-26T11:29:43;11.30;99.90
35541;DHT22;21650;48.840;9.162;2024-02-26T11:32:10;11.30;99.90
35541;DHT22;21650;48.840;9.162;2024-02-26T11:34:36;11.30;99.90
35541;DHT22;21650;48.840;9.162;2024-02-26T11:37:16;11.30;99.90
35541;DHT22;21650;48.840;9.162;2024-02-26T11:39:43;11.40;99.90
35541;DHT22;21650;48.840;9.162;2024-02-26T11:42:14;11.40;99.90
35541;DHT22;21650;48.840;9.162;2024-02-26T11:44:40;11.40;99.90
35541;DHT22;21650;48.840;9.162;2024-02-26T11:47:21;11.40;99.90
35541;DHT22;21650;48.840;9.162;2024-02-26T11:49:47;11.50;99.90
35541;DHT22;21650;48.840;9.162;2024-02-26T11:52:14;11.60;99.90
35541;DHT22;21650;48.840;9.162;2024-02-26T12:00:12;11.80;99.90
35541;DHT22;21650;48.840;9.162;2024-02-26T12:07:44;11.80;99.90
35541;DHT22;21650;48.840;9.162;2024-02-26T12:10:26;11.80;99.90
35541;DHT22;21650;48.840;9.162;2024-02-26T12:13:02;11.80;99.90
35541;DHT22;21650;48.840;9.162;2024-02-26T12:15:32;11.80;99.90
35541;DHT22;21650;48.840;9.162;2024-02-26T12:18:01;11.80;99.90
35541;DHT22;21650;48.840;9.162;2024-02-26T12:20:26;11.80;99.90
35541;DHT22;21650;48.840;9.162;2024-02-26T12:22:54;11.80;99.90
35541;DHT22;21650;48.840;9.162;2024-02-26T12:25:25;11.80;99.90
35541;DHT22;21650;48.840;9.162;2024-02-26T12:27:52;11.80;99.90
35541;DHT22;21650;48.840;9.162;2024-02-26T12:30:19;11.80;99.90
35541;DHT22;21650;48.840;9.162;2024-02-26T12:32:46;11.90;99.90
35541;DHT22;21650;48.840;9.162;2024-02-26T12:35:12;11.80;99.90
35541;DHT22;21650;48.840;9.162;2024-02-26T12:37:38;11.90;99.90
35541;DHT22;21650;48.840;9.162;2024-02-26T12:40:08;12.00;99.90
35541;DHT22;21650;48.840;9.162;2024-02-26T12:42:38;12.00;99.90
35541;DHT22;21650;48.840;9.162;2024-02-26T12:45:08;12.10;99.90
35541;DHT22;21650;48.840;9.162;2024-02-26T12:47:41;12.20;99.90
35541;DHT22;21650;48.840;9.162;2024-02-26T12:50:08;12.30;99.90
35541;DHT22;21650;48.840;9.162;2024-02-26T12:52:37;12.30;99.90
35541;DHT22;21650;48.840;9.162;2024-02-26T12:55:03;12.40;99.90
35541;DHT22;21650;48.840;9.162;2024-02-26T12:57:31;12.30;99.90
35541;DHT22;21650;48.840;9.162;2024-02-26T12:59:58;12.30;99.90
35541;DHT22;21650;48.840;9.162;2024-02-26T13:02:24;12.30;99.90
35541;DHT22;21650;48.840;9.162;2024-02-26T13:04:50;12.20;99.90
35541;DHT22;21650;48.840;9.162;2024-02-26T13:07:16;12.20;99.90
35541;DHT22;21650;48.840;9.162;2024-02-26T13:09:42;12.20;99.90
35541;DHT22;21650;48.840;9.162;2024-02-26T13:12:08;12.30;99.90
35541;DHT22;21650;48.840;9.162;2024-02-26T13:14:34;12.40;99.90
35541;DHT22;21650;48.840;9.162;2024-02-26T13:17:00;12.40;99.90
35541;DHT22;21650;48.840;9.162;2024-02-26T13:19:26;12.40;99.90
35541;DHT22;21650;48.840;9.162;2024-02-26T13:21:53;12.50;99.90
35541;DHT22;21650;48.840;9.162;2024-02-26T13:24:20;12.50;99.90
35541;DHT22;21650;48.840;9.162;2024-02-26T13:26:46;12.60;99.90
35541;DHT22;21650;48.840;9.162;2024-02-26T13:29:20;12.60;99.90
35541;DHT22;21650;48.840;9.162;2024-02-26T13:31:46;12.70;99.90
35541;DHT22;21650;48.840;9.162;2024-02-26T13:34:23;12.70;99.90
35541;DHT22;21650;48.840;9.162;2024-02-26T13:36:50;12.90;99.90
35541;DHT22;21650;48.840;9.162;2024-02-26T13:39:27;12.90;99.90
35541;DHT22;21650;48.840;9.162;2024-02-26T13:41:53;13.00;99.90
35541;DHT22;21650;48.840;9.162;2024-02-26T13:44:20;13.10;99.90
35541;DHT22;21650;48.840;9.162;2024-02-26T13:46:46;13.00;99.90
35541;DHT22;21650;48.840;9.162;2024-02-26T13:49:12;13.10;99.90
35541;DHT22;21650;48.840;9.162;2024-02-26T13:51:39;13.10;99.90
35541;DHT22;21650;48.840;9.162;2024-02-26T13:54:05;13.10;99.90
35541;DHT22;21650;48.840;9.162;2024-02-26T13:56:31;13.10;99.90
35541;DHT22;21650;48.840;9.162;2024-02-26T13:58:57;13.10;99.90
35541;DHT22;21650;48.840;9.162;2024-02-26T14:01:24;13.20;99.90
35541;DHT22;21650;48.840;9.162;2024-02-26T14:03:50;13.10;99.90
35541;DHT22;21650;48.840;9.162;2024-02-26T14:06:17;13.10;99.90
35541;DHT22;21650;48.840;9.162;2024-02-26T14:08:44;13.10;99.90
35541;DHT22;21650;48.840;9.162;2024-02-26T14:11:10;13.20;99.90
35541;DHT22;21650;48.840;9.162;2024-02-26T14:13:36;13.30;99.90
35541;DHT22;21650;48.840;9.162;2024-02-26T14:16:01;13.30;99.90
35541;DHT22;21650;48.840;9.162;2024-02-26T14:18:27;13.20;99.90
35541;DHT22;21650;48.840;9.162;2024-02-26T14:20:53;13.20;99.90
35541;DHT22;21650;48.840;9.162;2024-02-26T14:23:18;13.20;99.90
35541;DHT22;21650;48.840;9.162;2024-02-26T14:25:44;13.20;99.90
35541;DHT22;21650;48.840;9.162;2024-02-26T14:28:10;13.20;99.90
35541;DHT22;21650;48.840;9.162;2024-02-26T14:30:35;13.30;99.90
35541;DHT22;21650;48.840;9.162;2024-02-26T14:33:01;13.30;99.90
35541;DHT22;21650;48.840;9.162;2024-02-26T14:35:27;13.30;99.90
35541;DHT22;21650;48.840;9.162;2024-02-26T14:37:52;13.40;99.90
35541;DHT22;21650;48.840;9.162;2024-02-26T14:40:19;13.50;99.90
35541;DHT22;21650;48.840;9.162;2024-02-26T14:42:45;13.50;99.90
35541;DHT22;21650;48.840;9.162;2024-02-26T14:45:11;13.60;99.90
35541;DHT22;21650;48.840;9.162;2024-02-26T14:47:37;13.60;99.90
35541;DHT22;21650;48.840;9.162;2024-02-26T14:50:03;13.50;99.90
35541;DHT22;21650;48.840;9.162;2024-02-26T14:52:29;13.50;99.90
35541;DHT22;21650;48.840;9.162;2024-02-26T14:54:55;13.50;99.90
35541;DHT22;21650;48.840;9.162;2024-02-26T14:57:21;13.40;99.90
35541;DHT22;21650;48.840;9.162;2024-02-26T14:59:46;13.30;99.90
35541;DHT22;21650;48.840;9.162;2024-02-26T15:02:13;13.30;99.90
35541;DHT22;21650;48.840;9.162;2024-02-26T15:04:38;13.30;99.90
35541;DHT22;21650;48.840;9.162;2024-02-26T15:07:04;13.30;99.90
35541;DHT22;21650;48.840;9.162;2024-02-26T15:09:30;13.20;99.90
35541;DHT22;21650;48.840;9.162;2024-02-26T15:11:56;13.20;99.90
35541;DHT22;21650;48.840;9.162;2024-02-26T15:14:24;13.10;99.90
35541;DHT22;21650;48.840;9.162;2024-02-26T15:16:51;13.10;99.90
35541;DHT22;21650;48.840;9.162;2024-02-26T15:19:17;13.00;99.90
35541;DHT22;21650;48.840;9.162;2024-02-26T15:21:47;12.90;99.90
35541;DHT22;21650;48.840;9.162;2024-02-26T15:24:13;12.90;99.90
35541;DHT22;21650;48.840;9.162;2024-02-26T15:26:41;12.90;99.90
35541;DHT22;21650;48.840;9.162;2024-02-26T15:29:07;12.90;99.90
35541;DHT22;21650;48.840;9.162;2024-02-26T15:31:34;12.90;99.90
35541;DHT22;21650;48.840;9.162;2024-02-26T15:34:00;12.90;99.90
35541;DHT22;21650;48.840;9.162;2024-02-26T15:36:25;12.90;99.90
35541;DHT22;21650;48.840;9.162;2024-02-26T15:38:51;12.80;99.90
35541;DHT22;21650;48.840;9.162;2024-02-26T15:41:16;12.80;99.90
35541;DHT22;21650;48.840;9.162;2024-02-26T15:43:42;12.70;99.90
35541;DHT22;21650;48.840;9.162;2024-02-26T15:46:08;12.80;99.90
35541;DHT22;21650;48.840;9.162;2024-02-26T15:48:35;12.70;99.90